NCAR-RAP Real-Time Weather Data

Output produced by METARs form (10 April 2020  06:13 UTC)
found at http://weather.rap.ucar.edu/surface/
 
KHLN 100553Z AUTO 21004KT 10SM CLR 11/M04 A2990 RMK AO2 SLP135 T01111039 10194 20094 58001
KHLN 100453Z AUTO 00000KT 10SM CLR 11/M04 A2992 RMK AO2 SLP145 T01111039
KHLN 100353Z AUTO 22006KT 10SM CLR 13/M04 A2992 RMK AO2 SLP148 T01281039
KHLN 100253Z 28008KT 10SM CLR 13/M04 A2991 RMK AO2 SLP143 T01331039 55006
KHLN 100153Z 27007KT 10SM CLR 16/M04 A2989 RMK AO2 SLP140 T01611039
KHLN 100053Z 29010KT 10SM CLR 19/M04 A2990 RMK AO2 SLP140 T01891044
KHLN 092353Z 28012KT 10SM CLR 19/M04 A2993 RMK AO2 SLP146 T01941044 10200 20106 56021
KHLN 092253Z 28013KT 10SM CLR 20/M04 A2993 RMK AO2 SLP144 T02001039
KHLN 092153Z 24012G18KT 10SM CLR 19/M04 A2997 RMK AO2 SLP158 T01891044
KHLN 092053Z 22009KT 10SM CLR 18/M05 A3000 RMK AO2 SLP170 T01781050 56028
KHLN 091953Z 00000KT 10SM CLR 15/M05 A3002 RMK AO2 SLP183 T01501050
KHLN 091853Z 00000KT 10SM CLR 13/M04 A3005 RMK AO2 SLP196 T01331044
KHLN 091753Z VRB03KT 10SM CLR 10/M03 A3009 RMK AO2 SLP211 T01001033 10100 21011 58026
KHLN 091653Z 05004KT 10SM CLR 07/M04 A3012 RMK AO2 SLP224 T00671039
KHLN 091553Z VRB04KT 10SM CLR 04/M04 A3014 RMK AO2 SLP233 T00441044
KHLN 091453Z 05003KT 10SM CLR 03/M05 A3018 RMK AO2 SLP245 T00281050 58002
KHLN 091353Z 12003KT 10SM CLR 00/M06 A3019 RMK AO2 SLP251 T00001056
KHLN 091253Z 27005KT 10SM CLR M01/M06 A3018 RMK AO2 SLP244 T10111061
KHLN 091153Z 26005KT 10SM CLR 00/M06 A3018 RMK AO2 SLP241 T00001061 10050 20000 53003
KHLN 091053Z AUTO 26006KT 10SM CLR 01/M06 A3018 RMK AO2 SLP240 T00111056
KHLN 090953Z AUTO 26007KT 10SM CLR 02/M05 A3017 RMK AO2 SLP239 T00171050
KHLN 090853Z AUTO 26008KT 10SM CLR 02/M05 A3017 RMK AO2 SLP243 T00171050 51007